createdAt,value
2022-10-19T00:00:17.045Z,10.76
2022-10-19T00:02:18.916Z,10.69
2022-10-19T00:04:20.674Z,10.71
2022-10-19T00:06:31.528Z,10.66
2022-10-19T00:08:33.623Z,10.66
2022-10-19T00:10:35.626Z,10.65
2022-10-19T00:12:37.622Z,10.30
2022-10-19T00:14:39.405Z,10.65
2022-10-19T00:16:42.834Z,10.65
2022-10-19T00:18:45.503Z,10.62
2022-10-19T00:20:47.316Z,10.58
2022-10-19T00:22:50.273Z,10.61
2022-10-19T00:24:52.055Z,10.57
2022-10-19T00:26:54.114Z,10.59
2022-10-19T00:28:56.777Z,10.56
2022-10-19T00:31:06.762Z,10.55
2022-10-19T00:33:08.898Z,10.57
2022-10-19T00:35:10.750Z,10.66
2022-10-19T00:37:12.518Z,10.60
2022-10-19T00:39:17.039Z,10.61
2022-10-19T00:41:20.563Z,10.62
2022-10-19T00:43:25.916Z,10.63
2022-10-19T00:45:27.741Z,10.58
2022-10-19T00:47:29.923Z,10.68
2022-10-19T00:49:36.127Z,10.63
2022-10-19T00:51:42.255Z,10.71
2022-10-19T00:53:44.044Z,10.76
2022-10-19T00:55:46.693Z,10.68
2022-10-19T00:57:48.841Z,10.62
2022-10-19T00:59:51.591Z,10.66
2022-10-19T01:01:55.067Z,10.66
2022-10-19T01:03:57.339Z,10.64
2022-10-19T01:06:00.042Z,10.69
2022-10-19T01:08:02.077Z,10.69
2022-10-19T01:10:04.452Z,10.64
2022-10-19T01:12:25.568Z,10.60
2022-10-19T01:14:36.481Z,10.59
2022-10-19T01:16:47.103Z,10.39
2022-10-19T01:19:18.482Z,10.45
2022-10-19T01:21:20.149Z,10.42
2022-10-19T01:23:40.404Z,10.36
2022-10-19T01:26:00.003Z,10.30
2022-10-19T01:28:37.837Z,10.22
2022-10-19T01:31:03.056Z,10.27
2022-10-19T01:33:44.902Z,10.28
2022-10-19T01:36:01.292Z,10.17
2022-10-19T01:38:33.460Z,10.16
2022-10-19T01:41:31.445Z,10.15
2022-10-19T01:43:45.871Z,10.08
2022-10-19T01:45:54.924Z,10.06
2022-10-19T01:48:15.040Z,10.03
2022-10-19T01:50:25.252Z,9.96
2022-10-19T01:52:28.087Z,9.97
2022-10-19T01:54:36.263Z,9.93
2022-10-19T01:56:40.015Z,9.92
2022-10-19T01:58:45.383Z,9.93
2022-10-19T02:00:51.535Z,9.94
2022-10-19T02:02:55.415Z,9.99
2022-10-19T02:04:57.934Z,9.90
2022-10-19T02:07:01.069Z,10.00
2022-10-19T02:09:03.261Z,9.95
2022-10-19T02:11:05.420Z,9.98
2022-10-19T02:13:08.311Z,10.02
2022-10-19T02:15:15.181Z,10.03
2022-10-19T02:17:25.460Z,10.02
2022-10-19T02:19:27.201Z,10.09
2022-10-19T02:21:29.188Z,10.03
2022-10-19T02:23:31.122Z,10.01
2022-10-19T02:25:34.499Z,10.09
2022-10-19T02:29:39.535Z,10.03
2022-10-19T02:33:54.045Z,10.13
2022-10-19T02:35:56.978Z,10.07
2022-10-19T02:38:02.062Z,10.04
2022-10-19T02:40:05.450Z,10.05
2022-10-19T02:42:09.547Z,10.04
2022-10-19T02:44:26.444Z,10.07
2022-10-19T02:46:31.145Z,10.08
2022-10-19T02:48:35.407Z,10.03
2022-10-19T02:50:37.474Z,10.08
2022-10-19T02:52:40.813Z,10.03
2022-10-19T02:54:44.658Z,10.05
2022-10-19T02:56:46.353Z,10.13
2022-10-19T02:58:48.082Z,10.10
2022-10-19T03:00:50.061Z,10.10
2022-10-19T03:02:51.808Z,10.16
2022-10-19T03:04:53.553Z,10.08
2022-10-19T03:06:55.495Z,10.11
2022-10-19T03:08:57.164Z,10.13
2022-10-19T03:10:59.453Z,10.04
2022-10-19T03:13:01.688Z,10.06
2022-10-19T03:15:03.856Z,10.14
2022-10-19T03:17:05.737Z,10.15
2022-10-19T03:19:07.952Z,10.12
2022-10-19T03:21:12.836Z,10.14
2022-10-19T03:23:14.520Z,10.13
2022-10-19T03:25:16.588Z,10.15
2022-10-19T03:27:18.306Z,10.10
2022-10-19T03:29:19.990Z,10.14
2022-10-19T03:31:21.853Z,10.05
2022-10-19T03:33:26.907Z,10.02
2022-10-19T03:35:28.654Z,10.06
2022-10-19T03:37:30.954Z,10.09
2022-10-19T03:39:32.758Z,10.15
2022-10-19T03:41:36.674Z,10.16
2022-10-19T03:43:39.020Z,10.15
2022-10-19T03:45:40.747Z,10.06
2022-10-19T03:47:42.439Z,10.17
2022-10-19T03:49:44.402Z,10.13
2022-10-19T03:51:46.134Z,10.15
2022-10-19T03:53:51.853Z,10.04
2022-10-19T03:55:53.874Z,10.18
2022-10-19T03:57:55.590Z,10.04
2022-10-19T03:59:57.266Z,10.18
2022-10-19T04:01:59.318Z,10.13
2022-10-19T04:04:04.287Z,10.08
2022-10-19T04:06:09.067Z,10.03
2022-10-19T04:08:11.154Z,9.97
2022-10-19T04:10:13.073Z,9.92
2022-10-19T04:12:14.788Z,9.87
2022-10-19T04:14:31.599Z,9.77
2022-10-19T04:16:35.303Z,9.74
2022-10-19T04:18:36.971Z,9.74
2022-10-19T04:20:38.725Z,9.80
2022-10-19T04:22:40.618Z,9.84
2022-10-19T04:24:42.297Z,9.78
2022-10-19T04:26:52.802Z,9.81
2022-10-19T04:28:56.656Z,9.84
2022-10-19T04:31:01.979Z,9.74
2022-10-19T04:33:03.953Z,9.97
2022-10-19T04:35:06.287Z,9.89
2022-10-19T04:37:08.003Z,9.88
2022-10-19T04:39:09.935Z,9.90
2022-10-19T04:41:13.516Z,9.86
2022-10-19T04:43:15.199Z,9.88
2022-10-19T04:45:17.274Z,9.88
2022-10-19T04:47:19.227Z,9.90
2022-10-19T04:49:20.955Z,9.94
2022-10-19T04:51:24.383Z,9.94
2022-10-19T04:53:26.497Z,9.93
2022-10-19T04:55:28.232Z,9.95
2022-10-19T04:57:30.122Z,9.93
2022-10-19T04:59:32.144Z,9.98
2022-10-19T05:01:33.887Z,9.82
2022-10-19T05:03:35.890Z,9.93
2022-10-19T05:05:37.782Z,9.89
2022-10-19T05:07:39.570Z,10.02
2022-10-19T05:09:41.442Z,9.98
2022-10-19T05:11:43.382Z,9.94
2022-10-19T05:13:45.593Z,9.97
2022-10-19T05:15:58.137Z,9.86
2022-10-19T05:18:00.085Z,9.95
2022-10-19T05:20:01.847Z,9.89
2022-10-19T05:22:03.844Z,9.90
2022-10-19T05:24:05.848Z,10.00
2022-10-19T05:26:16.286Z,10.07
2022-10-19T05:28:18.155Z,10.12
2022-10-19T05:30:21.067Z,10.06
2022-10-19T05:32:22.890Z,10.04
2022-10-19T05:34:24.749Z,10.04
2022-10-19T05:36:31.773Z,10.07
2022-10-19T05:38:33.506Z,10.06
2022-10-19T05:40:35.341Z,10.00
2022-10-19T05:42:37.165Z,9.98
2022-10-19T05:46:45.901Z,10.01
2022-10-19T05:48:48.300Z,10.00
2022-10-19T05:50:56.050Z,10.11
2022-10-19T05:52:57.858Z,10.03
2022-10-19T05:54:59.530Z,10.04
2022-10-19T05:57:01.446Z,9.91
2022-10-19T05:59:05.638Z,9.87
2022-10-19T06:01:07.479Z,9.86
2022-10-19T06:03:09.180Z,9.85
2022-10-19T06:05:11.048Z,9.96
2022-10-19T06:07:12.770Z,10.01
2022-10-19T06:09:14.561Z,9.88
2022-10-19T06:11:22.652Z,9.86
2022-10-19T06:13:24.352Z,9.78
2022-10-19T06:15:26.090Z,9.96
2022-10-19T06:17:29.282Z,10.07
2022-10-19T06:19:30.968Z,10.04
2022-10-19T06:21:34.281Z,9.97
2022-10-19T06:23:36.576Z,10.01
2022-10-19T06:25:38.284Z,10.02
2022-10-19T06:27:40.075Z,10.08
2022-10-19T06:29:41.855Z,10.10
2022-10-19T06:31:43.593Z,10.16
2022-10-19T06:33:48.546Z,10.22
2022-10-19T06:35:51.462Z,10.21
2022-10-19T06:37:53.229Z,10.24
2022-10-19T06:39:55.208Z,10.12
2022-10-19T06:41:57.070Z,10.23
2022-10-19T06:43:58.770Z,10.27
2022-10-19T06:46:04.879Z,10.13
2022-10-19T06:48:07.801Z,10.18
2022-10-19T06:50:10.179Z,10.24
2022-10-19T06:52:12.205Z,10.22
2022-10-19T06:54:13.999Z,10.27
2022-10-19T06:56:15.792Z,10.32
2022-10-19T06:58:18.091Z,10.24
2022-10-19T07:00:19.901Z,10.19
2022-10-19T07:02:21.808Z,10.30
2022-10-19T07:04:23.682Z,10.25
2022-10-19T07:06:27.630Z,10.34
2022-10-19T07:08:30.990Z,10.37
2022-10-19T07:10:32.870Z,10.40
2022-10-19T07:12:34.862Z,10.36
2022-10-19T07:14:37.160Z,10.37
2022-10-19T07:16:38.986Z,10.28
2022-10-19T07:18:41.566Z,10.34
2022-10-19T07:20:43.243Z,10.30
2022-10-19T07:22:44.995Z,10.34
2022-10-19T07:24:46.821Z,10.23
2022-10-19T07:26:48.519Z,10.26
2022-10-19T07:28:51.274Z,10.27
2022-10-19T07:30:53.110Z,10.18
2022-10-19T07:32:54.786Z,10.29
2022-10-19T07:34:56.633Z,10.28
2022-10-19T07:36:58.506Z,10.30
2022-10-19T07:39:04.803Z,10.35
2022-10-19T07:41:14.794Z,10.38
2022-10-19T07:43:16.600Z,10.50
2022-10-19T07:45:18.321Z,10.48
2022-10-19T07:47:20.098Z,10.51
2022-10-19T07:49:22.114Z,10.36
2022-10-19T07:51:23.880Z,10.34
2022-10-19T07:53:25.699Z,10.45
2022-10-19T07:55:27.476Z,10.57
2022-10-19T07:57:29.182Z,10.61
2022-10-19T07:59:31.186Z,10.77
2022-10-19T08:01:38.320Z,10.88
2022-10-19T08:04:14.223Z,10.92
2022-10-19T08:06:03.866Z,10.96
2022-10-19T08:08:05.867Z,10.90
2022-10-19T08:10:08.328Z,10.96
2022-10-19T08:12:14.929Z,11.17
2022-10-19T08:14:17.307Z,11.06
2022-10-19T08:16:41.868Z,11.13
2022-10-19T08:18:43.775Z,11.15
2022-10-19T08:20:45.612Z,11.19
2022-10-19T08:22:47.333Z,11.07
2022-10-19T08:24:49.345Z,11.10
2022-10-19T08:26:51.499Z,11.13
2022-10-19T08:28:53.296Z,11.50
2022-10-19T08:30:55.012Z,11.56
2022-10-19T08:32:56.961Z,11.50
2022-10-19T08:34:58.848Z,11.51
2022-10-19T08:37:10.162Z,11.37
2022-10-19T08:39:22.145Z,11.28
2022-10-19T08:41:51.489Z,11.44
2022-10-19T08:44:16.455Z,11.46
2022-10-19T08:46:27.866Z,11.31
2022-10-19T08:48:32.674Z,11.22
2022-10-19T08:50:39.408Z,11.37
2022-10-19T08:52:42.818Z,11.19
2022-10-19T08:54:54.812Z,11.23
2022-10-19T08:57:20.309Z,11.28
2022-10-19T08:59:28.366Z,11.29
2022-10-19T09:01:41.875Z,11.34
2022-10-19T09:03:55.509Z,11.34
2022-10-19T09:06:23.806Z,11.25
2022-10-19T09:08:26.071Z,11.33
2022-10-19T09:10:33.843Z,11.45
2022-10-19T09:12:44.967Z,11.36
2022-10-19T09:15:04.539Z,11.44
2022-10-19T09:17:14.495Z,11.38
2022-10-19T09:19:24.549Z,11.41
2022-10-19T09:22:07.808Z,11.53
2022-10-19T09:24:22.675Z,11.55
2022-10-19T09:26:37.200Z,11.57
2022-10-19T09:28:54.905Z,11.30
2022-10-19T09:30:57.887Z,10.65
2022-10-19T09:33:01.652Z,10.23
2022-10-19T09:35:15.068Z,10.12
2022-10-19T09:37:25.026Z,9.95
2022-10-19T09:39:29.950Z,9.91
2022-10-19T09:41:32.715Z,9.87
2022-10-19T09:43:34.864Z,9.85
2022-10-19T09:45:46.416Z,9.87
2022-10-19T09:47:48.962Z,9.98
2022-10-19T09:50:11.102Z,10.00
2022-10-19T09:52:26.184Z,9.87
2022-10-19T09:54:35.391Z,10.09
2022-10-19T09:56:37.106Z,10.17
2022-10-19T09:58:49.072Z,10.09
2022-10-19T10:00:53.035Z,10.01
2022-10-19T10:02:56.338Z,9.96
2022-10-19T10:05:14.791Z,10.05
2022-10-19T10:07:18.500Z,10.08
2022-10-19T10:09:23.810Z,10.16
2022-10-19T10:11:30.643Z,10.23
2022-10-19T10:13:37.669Z,10.33
2022-10-19T10:15:47.243Z,10.32
2022-10-19T10:17:49.935Z,10.42
2022-10-19T10:20:00.654Z,10.49
2022-10-19T10:22:04.170Z,10.64
2022-10-19T10:24:17.921Z,10.73
2022-10-19T10:26:19.901Z,10.91
2022-10-19T10:28:25.010Z,10.90
2022-10-19T10:30:30.935Z,11.00
2022-10-19T10:32:38.793Z,11.16
2022-10-19T10:34:53.781Z,10.96
2022-10-19T10:36:57.736Z,10.87
2022-10-19T10:39:17.771Z,10.83
2022-10-19T10:41:23.644Z,10.82
2022-10-19T10:43:35.197Z,10.76
2022-10-19T10:45:45.805Z,10.77
2022-10-19T10:47:48.423Z,10.58
2022-10-19T10:50:03.381Z,10.63
2022-10-19T10:52:08.309Z,10.77
2022-10-19T10:54:18.145Z,10.86
2022-10-19T10:56:30.545Z,11.02
2022-10-19T10:58:44.268Z,11.14
2022-10-19T11:00:48.615Z,11.06
2022-10-19T11:03:22.884Z,10.96
2022-10-19T11:05:42.093Z,10.76
2022-10-19T11:07:46.722Z,10.86
2022-10-19T11:09:57.031Z,11.03
2022-10-19T11:12:04.332Z,11.22
2022-10-19T11:14:44.264Z,11.22
2022-10-19T11:16:48.158Z,11.25
2022-10-19T11:19:03.016Z,11.07
2022-10-19T11:21:07.365Z,11.17
2022-10-19T11:23:25.747Z,11.39
2022-10-19T11:25:46.655Z,11.43
2022-10-19T11:28:18.553Z,11.45
2022-10-19T11:30:24.916Z,11.54
2022-10-19T11:32:38.654Z,11.84
2022-10-19T11:34:54.034Z,11.77
2022-10-19T11:37:06.183Z,11.58
2022-10-19T11:39:29.619Z,11.53
2022-10-19T11:41:44.497Z,11.48
2022-10-19T11:43:51.879Z,11.37
2022-10-19T11:46:16.442Z,11.21
2022-10-19T11:48:33.558Z,11.40
2022-10-19T11:51:31.342Z,11.33
2022-10-19T11:54:03.691Z,11.27
2022-10-19T11:56:25.155Z,11.43
2022-10-19T11:59:01.118Z,11.31
2022-10-19T12:01:30.110Z,11.36
2022-10-19T12:03:54.524Z,11.40
2022-10-19T12:06:11.740Z,11.39
2022-10-19T12:08:47.192Z,11.51
2022-10-19T12:11:01.784Z,11.40
2022-10-19T12:13:06.383Z,11.33
2022-10-19T12:15:22.924Z,11.44
2022-10-19T12:17:41.899Z,11.46
2022-10-19T12:19:48.686Z,11.55
2022-10-19T12:21:53.635Z,11.56
2022-10-19T12:23:57.857Z,11.76
2022-10-19T12:26:03.687Z,11.74
2022-10-19T12:28:05.543Z,11.83
2022-10-19T12:30:16.162Z,11.84
2022-10-19T12:32:23.326Z,11.69
2022-10-19T12:34:36.794Z,11.93
2022-10-19T12:36:47.958Z,12.09
2022-10-19T12:39:27.847Z,12.18
2022-10-19T12:41:56.742Z,11.96
2022-10-19T12:44:32.423Z,11.43
2022-10-19T12:46:49.865Z,10.97
2022-10-19T12:49:32.173Z,10.82
2022-10-19T12:51:46.290Z,10.74
2022-10-19T12:53:48.874Z,10.61
2022-10-19T12:56:05.354Z,10.56
2022-10-19T12:58:23.048Z,10.45
2022-10-19T13:00:28.853Z,10.51
2022-10-19T13:02:35.438Z,10.41
2022-10-19T13:04:37.477Z,10.46
2022-10-19T13:06:48.703Z,10.25
2022-10-19T13:08:53.568Z,10.30
2022-10-19T13:11:10.268Z,10.29
2022-10-19T13:13:50.119Z,10.18
2022-10-19T13:15:52.232Z,9.97
2022-10-19T13:17:54.116Z,10.12
2022-10-19T13:20:15.738Z,10.19
2022-10-19T13:22:26.553Z,10.07
2022-10-19T13:24:32.188Z,10.00
2022-10-19T13:26:34.779Z,10.01
2022-10-19T13:28:39.150Z,9.97
2022-10-19T13:30:41.124Z,9.98
2022-10-19T13:32:44.835Z,10.03
2022-10-19T13:34:47.051Z,9.90
2022-10-19T13:37:03.264Z,9.84
2022-10-19T13:39:10.284Z,9.81
2022-10-19T13:41:19.660Z,10.12
2022-10-19T13:43:28.354Z,10.09
2022-10-19T13:45:30.383Z,10.06
2022-10-19T13:47:42.652Z,10.25
2022-10-19T13:50:06.987Z,10.11
2022-10-19T13:52:43.371Z,10.38
2022-10-19T13:55:14.973Z,10.43
2022-10-19T13:57:24.302Z,10.54
2022-10-19T13:59:37.304Z,10.70
2022-10-19T14:01:52.117Z,10.77
2022-10-19T14:04:12.376Z,10.78
2022-10-19T14:06:22.323Z,11.03
2022-10-19T14:09:03.981Z,11.26
2022-10-19T14:11:15.963Z,11.14
2022-10-19T14:13:17.694Z,11.06
2022-10-19T14:15:28.902Z,10.72
2022-10-19T14:17:31.493Z,10.70
2022-10-19T14:19:43.755Z,10.59
2022-10-19T14:21:45.692Z,10.26
2022-10-19T14:26:06.870Z,10.06
2022-10-19T14:28:08.706Z,10.06
2022-10-19T14:30:27.109Z,9.81
2022-10-19T14:32:29.754Z,9.98
2022-10-19T14:34:31.667Z,9.91
2022-10-19T14:36:40.088Z,9.84
2022-10-19T14:38:43.268Z,9.88
2022-10-19T14:40:45.146Z,9.62
2022-10-19T14:42:47.942Z,9.71
2022-10-19T14:44:49.673Z,9.57
2022-10-19T14:46:51.437Z,9.71
2022-10-19T14:49:02.099Z,9.49
2022-10-19T14:51:10.410Z,9.57
2022-10-19T14:53:41.316Z,9.58
2022-10-19T14:55:43.775Z,9.44
2022-10-19T14:57:49.633Z,9.31
2022-10-19T14:59:56.729Z,9.46
2022-10-19T15:02:04.277Z,9.36
2022-10-19T15:04:06.000Z,9.47
2022-10-19T15:06:08.046Z,9.39
2022-10-19T15:08:17.181Z,9.47
2022-10-19T15:10:26.865Z,9.47
2022-10-19T15:12:34.750Z,9.58
2022-10-19T15:14:38.003Z,9.59
2022-10-19T15:16:39.661Z,9.49
2022-10-19T15:18:49.698Z,9.55
2022-10-19T15:21:12.086Z,9.44
2022-10-19T15:23:43.638Z,9.46
2022-10-19T15:25:45.427Z,9.38
2022-10-19T15:27:47.125Z,9.44
2022-10-19T15:29:56.833Z,9.38
2022-10-19T15:32:16.708Z,9.29
2022-10-19T15:34:36.539Z,9.27
2022-10-19T15:36:38.422Z,9.07
2022-10-19T15:38:40.198Z,8.93
2022-10-19T15:40:44.020Z,9.06
2022-10-19T15:42:46.028Z,8.71
2022-10-19T15:44:48.070Z,8.85
2022-10-19T15:46:49.711Z,8.73
2022-10-19T15:48:55.454Z,8.71
2022-10-19T15:50:57.513Z,8.73
2022-10-19T15:52:59.604Z,8.59
2022-10-19T15:55:03.157Z,8.57
2022-10-19T15:57:21.789Z,8.61
2022-10-19T15:59:23.524Z,8.56
2022-10-19T16:01:31.671Z,8.61
2022-10-19T16:03:33.423Z,8.46
2022-10-19T16:05:36.425Z,8.42
2022-10-19T16:07:40.244Z,8.33
2022-10-19T16:09:41.985Z,8.40
2022-10-19T16:11:44.453Z,8.20
2022-10-19T16:13:46.233Z,8.11
2022-10-19T16:15:53.365Z,8.17
2022-10-19T16:18:03.464Z,8.03
2022-10-19T16:20:06.512Z,7.96
2022-10-19T16:22:08.239Z,8.17
2022-10-19T16:24:10.163Z,8.03
2022-10-19T16:26:14.994Z,7.99
2022-10-19T16:28:17.664Z,8.09
2022-10-19T16:30:19.606Z,8.01
2022-10-19T16:32:21.573Z,8.07
2022-10-19T16:34:23.353Z,8.06
2022-10-19T16:36:25.298Z,8.07
2022-10-19T16:38:29.404Z,8.03
2022-10-19T16:40:31.096Z,7.94
2022-10-19T16:42:33.716Z,7.93
2022-10-19T16:44:35.909Z,7.98
2022-10-19T16:46:37.590Z,8.06
2022-10-19T16:48:39.434Z,7.85
2022-10-19T16:52:45.745Z,7.78
2022-10-19T16:54:47.587Z,7.80
2022-10-19T16:56:49.610Z,7.82
2022-10-19T16:58:54.305Z,7.76
2022-10-19T17:00:56.083Z,7.77
2022-10-19T17:02:57.843Z,7.75
2022-10-19T17:04:59.574Z,7.64
2022-10-19T17:07:01.381Z,7.60
2022-10-19T17:11:34.904Z,7.71
2022-10-19T17:13:36.688Z,7.71
2022-10-19T17:15:42.827Z,7.58
2022-10-19T17:17:44.946Z,7.50
2022-10-19T17:19:46.686Z,7.52
2022-10-19T17:21:49.504Z,7.52
2022-10-19T17:23:53.323Z,7.39
2022-10-19T17:25:54.938Z,7.35
2022-10-19T17:28:08.876Z,7.22
2022-10-19T17:30:10.936Z,7.26
2022-10-19T17:32:12.815Z,7.24
2022-10-19T17:34:15.030Z,7.18
2022-10-19T17:36:25.376Z,7.13
2022-10-19T17:38:27.158Z,7.14
2022-10-19T17:40:28.952Z,7.19
2022-10-19T17:42:30.632Z,7.12
2022-10-19T17:44:32.555Z,7.00
2022-10-19T17:46:35.315Z,7.05
2022-10-19T17:48:38.432Z,6.96
2022-10-19T17:50:40.266Z,6.94
2022-10-19T17:52:42.067Z,6.89
2022-10-19T17:54:54.688Z,6.73
2022-10-19T17:57:06.760Z,6.38
2022-10-19T17:59:08.519Z,6.66
2022-10-19T18:01:11.165Z,6.63
2022-10-19T18:03:13.641Z,6.52
2022-10-19T18:05:17.143Z,6.43
2022-10-19T18:07:19.129Z,6.28
2022-10-19T18:09:20.893Z,6.19
2022-10-19T18:11:27.827Z,6.26
2022-10-19T18:13:30.309Z,6.22
2022-10-19T18:15:32.068Z,6.31
2022-10-19T18:17:36.096Z,6.28
2022-10-19T18:19:37.995Z,6.20
2022-10-19T18:21:41.757Z,6.12
2022-10-19T18:23:43.761Z,6.07
2022-10-19T18:25:53.825Z,6.08
2022-10-19T18:27:56.203Z,6.03
2022-10-19T18:29:57.992Z,6.05
2022-10-19T18:31:59.741Z,5.98
2022-10-19T18:34:03.677Z,5.85
2022-10-19T18:36:07.285Z,5.89
2022-10-19T18:38:09.063Z,5.93
2022-10-19T18:40:11.036Z,5.93
2022-10-19T18:42:12.878Z,5.94
2022-10-19T18:44:14.587Z,5.83
2022-10-19T18:46:19.394Z,5.85
2022-10-19T18:48:22.103Z,5.89
2022-10-19T18:50:23.832Z,5.78
2022-10-19T18:52:25.679Z,5.66
2022-10-19T18:54:27.455Z,5.69
2022-10-19T18:56:29.278Z,5.68
2022-10-19T18:58:31.328Z,5.68
2022-10-19T19:00:33.299Z,5.72
2022-10-19T19:02:45.708Z,5.70
2022-10-19T19:04:48.007Z,5.72
2022-10-19T19:06:49.828Z,5.63
2022-10-19T19:08:54.874Z,5.72
2022-10-19T19:10:57.088Z,5.62
2022-10-19T19:12:58.825Z,5.55
2022-10-19T19:15:00.513Z,5.55
2022-10-19T19:17:02.232Z,5.48
2022-10-19T19:19:05.808Z,5.40
2022-10-19T19:21:17.937Z,5.35
2022-10-19T19:23:19.795Z,5.35
2022-10-19T19:25:21.624Z,5.26
2022-10-19T19:27:27.168Z,5.32
2022-10-19T19:29:31.329Z,5.32
2022-10-19T19:31:33.523Z,5.19
2022-10-19T19:33:36.816Z,5.24
2022-10-19T19:35:46.653Z,5.23
2022-10-19T19:37:48.335Z,5.31
2022-10-19T19:39:50.043Z,5.19
2022-10-19T19:41:51.880Z,5.14
2022-10-19T19:43:55.177Z,5.08
2022-10-19T19:46:04.758Z,5.08
2022-10-19T19:48:10.711Z,5.07
2022-10-19T19:50:12.539Z,5.04
2022-10-19T19:52:14.300Z,4.95
2022-10-19T19:54:16.070Z,4.95
2022-10-19T19:56:20.435Z,4.92
2022-10-19T19:58:22.175Z,4.88
2022-10-19T20:00:25.046Z,4.80
2022-10-19T20:02:26.768Z,4.77
2022-10-19T20:04:28.518Z,4.85
2022-10-19T20:06:30.745Z,4.89
2022-10-19T20:08:33.042Z,4.94
2022-10-19T20:10:39.395Z,4.97
2022-10-19T20:12:41.152Z,4.96
2022-10-19T20:14:43.741Z,4.97
2022-10-19T20:16:45.409Z,5.01
2022-10-19T20:18:50.290Z,4.90
2022-10-19T20:20:52.144Z,4.89
2022-10-19T20:22:53.830Z,4.84
2022-10-19T20:24:55.509Z,4.85
2022-10-19T20:26:57.293Z,4.72
2022-10-19T20:29:00.890Z,4.69
2022-10-19T20:31:07.852Z,4.69
2022-10-19T20:33:09.986Z,4.71
2022-10-19T20:35:11.698Z,4.71
2022-10-19T20:37:13.448Z,4.87
2022-10-19T20:39:16.727Z,4.96
2022-10-19T20:41:20.174Z,4.98
2022-10-19T20:43:21.985Z,4.93
2022-10-19T20:45:23.690Z,4.94
2022-10-19T20:47:25.371Z,4.94
2022-10-19T20:49:27.198Z,5.02
2022-10-19T20:51:32.626Z,5.14
2022-10-19T20:53:34.543Z,5.06
2022-10-19T20:55:36.339Z,5.02
2022-10-19T20:57:38.086Z,5.01
2022-10-19T20:59:39.778Z,4.95
2022-10-19T21:01:43.425Z,4.82
2022-10-19T21:03:49.094Z,4.91
2022-10-19T21:05:50.771Z,4.80
2022-10-19T21:07:53.114Z,4.78
2022-10-19T21:09:55.122Z,4.87
2022-10-19T21:11:56.906Z,4.82
2022-10-19T21:14:04.344Z,4.77
2022-10-19T21:16:11.523Z,4.78
2022-10-19T21:18:13.311Z,4.78
2022-10-19T21:20:15.021Z,4.76
2022-10-19T21:22:16.709Z,4.72
2022-10-19T21:24:21.555Z,4.59
2022-10-19T21:26:26.004Z,4.43
2022-10-19T21:28:27.869Z,4.34
2022-10-19T21:30:29.626Z,4.38
2022-10-19T21:32:31.338Z,4.34
2022-10-19T21:34:33.118Z,4.37
2022-10-19T21:36:35.071Z,4.29
2022-10-19T21:38:36.797Z,4.36
2022-10-19T21:40:38.758Z,4.30
2022-10-19T21:42:40.453Z,4.36
2022-10-19T21:44:42.249Z,4.30
2022-10-19T21:46:44.843Z,4.25
2022-10-19T21:48:47.160Z,4.17
2022-10-19T21:50:49.590Z,4.06
2022-10-19T21:52:51.424Z,4.02
2022-10-19T21:54:53.765Z,3.98
2022-10-19T21:56:56.153Z,3.94
2022-10-19T21:58:58.203Z,3.94
2022-10-19T22:01:07.698Z,3.96
2022-10-19T22:03:10.869Z,3.98
2022-10-19T22:05:12.671Z,4.02
2022-10-19T22:07:14.382Z,3.98
2022-10-19T22:09:22.582Z,3.85
2022-10-19T22:11:24.987Z,3.85
2022-10-19T22:13:26.725Z,3.82
2022-10-19T22:15:28.448Z,3.79
2022-10-19T22:17:30.393Z,3.78
2022-10-19T22:19:32.112Z,3.72
2022-10-19T22:21:34.822Z,3.74
2022-10-19T22:23:36.991Z,3.76
2022-10-19T22:25:38.714Z,3.72
2022-10-19T22:27:40.437Z,3.68
2022-10-19T22:29:42.357Z,3.71
2022-10-19T22:31:44.325Z,3.62
2022-10-19T22:33:46.011Z,3.64
2022-10-19T22:35:58.642Z,3.59
2022-10-19T22:38:00.390Z,3.66
2022-10-19T22:40:09.866Z,3.38
2022-10-19T22:42:11.790Z,3.41
2022-10-19T22:44:13.571Z,2.99
2022-10-19T22:46:15.352Z,3.05
2022-10-19T22:48:18.601Z,3.61
2022-10-19T22:50:20.400Z,3.56
2022-10-19T22:52:22.178Z,3.57
2022-10-19T22:54:24.073Z,3.41
2022-10-19T22:56:25.956Z,3.61
2022-10-19T22:58:27.733Z,3.25
2022-10-19T23:00:30.578Z,3.51
2022-10-19T23:02:32.424Z,3.70
2022-10-19T23:04:34.424Z,3.10
2022-10-19T23:06:36.707Z,3.62
2022-10-19T23:08:38.607Z,3.22
2022-10-19T23:10:40.341Z,3.48
2022-10-19T23:12:42.723Z,3.54
2022-10-19T23:14:44.451Z,3.16
2022-10-19T23:16:46.204Z,3.68
2022-10-19T23:18:48.640Z,2.94
2022-10-19T23:20:57.363Z,2.64
2022-10-19T23:22:59.122Z,3.48
2022-10-19T23:25:01.214Z,3.65
2022-10-19T23:27:03.081Z,3.80
2022-10-19T23:29:04.816Z,3.73
2022-10-19T23:31:10.158Z,3.37
2022-10-19T23:33:11.882Z,3.46
2022-10-19T23:35:13.741Z,3.52
2022-10-19T23:37:16.003Z,3.50
2022-10-19T23:39:18.328Z,3.14
2022-10-19T23:41:21.047Z,3.76
2022-10-19T23:43:23.046Z,3.78
2022-10-19T23:45:24.850Z,3.66
2022-10-19T23:47:26.824Z,3.64
2022-10-19T23:49:28.731Z,3.61
2022-10-19T23:51:30.644Z,3.66
2022-10-19T23:53:35.755Z,3.42
2022-10-19T23:55:40.301Z,3.34
2022-10-19T23:57:42.189Z,3.25
2022-10-19T23:59:43.998Z,3.60
